createdAt,value
2023-05-05T00:00:08.839Z,8.60
2023-05-05T00:02:36.462Z,8.60
2023-05-05T00:05:04.174Z,8.60
2023-05-05T00:07:31.345Z,8.60
2023-05-05T00:09:58.473Z,8.60
2023-05-05T00:12:25.755Z,8.50
2023-05-05T00:14:52.819Z,8.60
2023-05-05T00:17:20.023Z,8.50
2023-05-05T00:19:47.172Z,8.50
2023-05-05T00:22:14.526Z,8.50
2023-05-05T00:24:41.698Z,8.50
2023-05-05T00:27:08.859Z,8.50
2023-05-05T00:29:35.966Z,8.50
2023-05-05T00:32:03.151Z,8.40
2023-05-05T00:34:30.453Z,8.40
2023-05-05T00:36:57.666Z,8.40
2023-05-05T00:39:25.321Z,8.40
2023-05-05T00:41:52.474Z,8.40
2023-05-05T00:44:38.558Z,8.40
2023-05-05T00:47:06.374Z,8.40
2023-05-05T00:49:34.880Z,8.40
2023-05-05T00:52:04.000Z,8.40
2023-05-05T00:54:31.659Z,8.40
2023-05-05T00:56:58.941Z,8.40
2023-05-05T00:59:27.838Z,8.30
2023-05-05T01:01:55.436Z,8.30
2023-05-05T01:04:22.935Z,8.30
2023-05-05T01:07:26.699Z,8.30
2023-05-05T01:10:20.316Z,8.30
2023-05-05T01:13:16.646Z,8.30
2023-05-05T01:15:57.503Z,8.30
2023-05-05T01:18:54.641Z,8.30
2023-05-05T01:21:50.462Z,8.30
2023-05-05T01:24:51.215Z,8.30
2023-05-05T01:27:34.136Z,8.20
2023-05-05T01:30:44.180Z,8.30
2023-05-05T01:33:20.320Z,8.20
2023-05-05T01:35:54.007Z,8.20
2023-05-05T01:38:26.778Z,8.30
2023-05-05T01:41:25.662Z,8.30
2023-05-05T01:43:54.200Z,8.20
2023-05-05T01:46:24.386Z,8.30
2023-05-05T01:48:52.549Z,8.30
2023-05-05T01:51:23.494Z,8.20
2023-05-05T01:53:55.662Z,8.20
2023-05-05T01:56:24.055Z,8.20
2023-05-05T01:58:53.096Z,8.20
2023-05-05T02:01:26.020Z,8.20
2023-05-05T02:03:57.139Z,8.30
2023-05-05T02:06:28.253Z,8.30
2023-05-05T02:08:58.348Z,8.30
2023-05-05T02:11:27.933Z,8.30
2023-05-05T02:13:56.630Z,8.30
2023-05-05T02:16:24.827Z,8.30
2023-05-05T02:18:53.642Z,8.30
2023-05-05T02:21:21.421Z,8.30
2023-05-05T02:23:51.701Z,8.30
2023-05-05T02:26:22.595Z,8.30
2023-05-05T02:29:19.398Z,8.30
2023-05-05T02:31:51.175Z,8.30
2023-05-05T02:34:28.195Z,8.30
2023-05-05T02:36:58.796Z,8.30
2023-05-05T02:39:43.615Z,8.40
2023-05-05T02:42:21.814Z,8.40
2023-05-05T02:44:55.606Z,8.40
2023-05-05T02:47:23.564Z,8.40
2023-05-05T02:49:52.619Z,8.40
2023-05-05T02:52:19.903Z,8.30
2023-05-05T02:54:48.368Z,8.30
2023-05-05T02:57:21.185Z,8.40
2023-05-05T03:00:25.669Z,8.40
2023-05-05T03:03:26.295Z,8.40
2023-05-05T03:06:07.347Z,8.30
2023-05-05T03:08:49.077Z,8.30
2023-05-05T03:11:29.516Z,8.30
2023-05-05T03:14:07.332Z,8.30
2023-05-05T03:16:37.093Z,8.30
2023-05-05T03:19:07.656Z,8.30
2023-05-05T03:21:36.157Z,8.30
2023-05-05T03:24:19.788Z,8.30
2023-05-05T03:26:55.757Z,8.30
2023-05-05T03:29:26.760Z,8.30
2023-05-05T03:31:54.277Z,8.30
2023-05-05T03:34:21.635Z,8.30
2023-05-05T03:36:49.236Z,8.20
2023-05-05T03:39:18.667Z,8.30
2023-05-05T03:41:46.583Z,8.30
2023-05-05T03:44:15.134Z,8.30
2023-05-05T03:46:42.326Z,8.30
2023-05-05T03:49:13.081Z,8.30
2023-05-05T03:51:42.228Z,8.30
2023-05-05T03:54:09.572Z,8.30
2023-05-05T03:56:37.375Z,8.20
2023-05-05T03:59:04.495Z,8.20
2023-05-05T04:01:31.767Z,8.30
2023-05-05T04:04:00.259Z,8.30
2023-05-05T04:06:27.755Z,8.30
2023-05-05T04:08:55.132Z,8.30
2023-05-05T04:11:22.479Z,8.30
2023-05-05T04:13:50.081Z,8.30
2023-05-05T04:16:18.765Z,8.30
2023-05-05T04:18:46.428Z,8.30
2023-05-05T04:21:13.683Z,8.30
2023-05-05T04:23:41.568Z,8.30
2023-05-05T04:26:08.875Z,8.30
2023-05-05T04:28:36.441Z,8.30
2023-05-05T04:31:05.121Z,8.40
2023-05-05T04:33:35.755Z,8.40
2023-05-05T04:36:03.726Z,8.30
2023-05-05T04:38:31.076Z,8.30
2023-05-05T04:41:00.058Z,8.40
2023-05-05T04:43:28.233Z,8.40
2023-05-05T04:45:55.973Z,8.40
2023-05-05T04:48:27.159Z,8.50
2023-05-05T04:50:54.273Z,8.50
2023-05-05T04:53:21.711Z,8.50
2023-05-05T04:55:48.901Z,8.50
2023-05-05T04:58:16.048Z,8.60
2023-05-05T05:00:43.706Z,8.60
2023-05-05T05:03:10.910Z,8.60
2023-05-05T05:05:38.066Z,8.60
2023-05-05T05:08:05.818Z,8.70
2023-05-05T05:10:33.076Z,8.70
2023-05-05T05:13:00.398Z,8.70
2023-05-05T05:15:27.917Z,8.80
2023-05-05T05:17:55.523Z,8.80
2023-05-05T05:20:23.279Z,8.90
2023-05-05T05:22:50.916Z,8.90
2023-05-05T05:25:20.836Z,8.90
2023-05-05T05:27:58.488Z,8.90
2023-05-05T05:30:36.494Z,9.00
2023-05-05T05:33:06.265Z,9.00
2023-05-05T05:35:33.926Z,8.90
2023-05-05T05:38:01.364Z,8.80
2023-05-05T05:40:28.575Z,8.90
2023-05-05T05:42:56.168Z,8.90
2023-05-05T05:45:28.034Z,8.80
2023-05-05T05:47:55.727Z,8.90
2023-05-05T05:50:24.514Z,8.90
2023-05-05T05:52:52.040Z,8.90
2023-05-05T05:55:19.891Z,8.90
2023-05-05T05:57:47.177Z,8.90
2023-05-05T06:00:15.985Z,9.00
2023-05-05T06:02:51.288Z,8.90
2023-05-05T06:05:21.580Z,8.90
2023-05-05T06:07:50.452Z,9.00
2023-05-05T06:10:26.466Z,9.20
2023-05-05T06:12:59.682Z,9.30
2023-05-05T06:15:27.533Z,9.40
2023-05-05T06:17:55.087Z,9.30
2023-05-05T06:20:23.331Z,9.30
2023-05-05T06:22:50.477Z,9.30
2023-05-05T06:25:18.176Z,9.30
2023-05-05T06:27:46.486Z,9.40
2023-05-05T06:30:14.783Z,9.40
2023-05-05T06:32:42.138Z,9.30
2023-05-05T06:35:10.185Z,9.40
2023-05-05T06:37:37.449Z,9.40
2023-05-05T06:40:06.866Z,9.50
2023-05-05T06:42:34.481Z,9.60
2023-05-05T06:45:05.445Z,9.70
2023-05-05T06:47:33.412Z,9.80
2023-05-05T06:50:00.915Z,9.90
2023-05-05T06:52:28.214Z,10.00
2023-05-05T06:54:55.439Z,10.50
2023-05-05T06:57:22.626Z,10.70
2023-05-05T06:59:49.834Z,10.80
2023-05-05T07:02:17.069Z,10.80
2023-05-05T07:04:44.371Z,10.80
2023-05-05T07:07:11.946Z,10.70
2023-05-05T07:09:39.283Z,10.80
2023-05-05T07:12:07.121Z,10.60
2023-05-05T07:14:34.247Z,10.40
2023-05-05T07:17:01.577Z,10.40
2023-05-05T07:19:28.813Z,10.30
2023-05-05T07:21:56.020Z,10.30
2023-05-05T07:24:24.350Z,10.40
2023-05-05T07:26:51.894Z,10.50
2023-05-05T07:29:19.031Z,10.70
2023-05-05T07:31:46.636Z,10.90
2023-05-05T07:34:14.140Z,10.90
2023-05-05T07:36:41.976Z,11.30
2023-05-05T07:39:09.162Z,11.50
2023-05-05T07:41:36.286Z,11.70
2023-05-05T07:44:03.468Z,11.50
2023-05-05T07:46:30.773Z,11.30
2023-05-05T07:48:58.093Z,11.10
2023-05-05T07:51:26.496Z,10.90
2023-05-05T07:53:53.760Z,11.10
2023-05-05T07:56:21.748Z,11.30
2023-05-05T07:58:49.238Z,11.70
2023-05-05T08:01:16.609Z,11.60
2023-05-05T08:03:44.905Z,11.50
2023-05-05T08:06:16.207Z,11.50
2023-05-05T08:08:43.398Z,11.50
2023-05-05T08:11:10.793Z,11.60
2023-05-05T08:13:39.199Z,11.70
2023-05-05T08:16:07.120Z,12.00
2023-05-05T08:18:37.507Z,12.10
2023-05-05T08:21:06.095Z,12.00
2023-05-05T08:23:37.005Z,11.70
2023-05-05T08:26:06.292Z,11.70
2023-05-05T08:28:36.451Z,11.70
2023-05-05T08:31:05.709Z,11.90
2023-05-05T08:33:33.377Z,12.00
2023-05-05T08:36:00.790Z,11.60
2023-05-05T08:38:28.090Z,11.70
2023-05-05T08:40:55.420Z,12.00
2023-05-05T08:43:24.025Z,12.00
2023-05-05T08:45:51.758Z,11.90
2023-05-05T08:48:23.048Z,11.90
2023-05-05T08:50:59.954Z,11.90
2023-05-05T08:53:56.105Z,12.00
2023-05-05T08:56:27.755Z,12.30
2023-05-05T08:58:56.476Z,12.40
2023-05-05T09:01:24.010Z,12.50
2023-05-05T09:03:52.683Z,12.60
2023-05-05T09:06:25.594Z,12.30
2023-05-05T09:08:53.978Z,12.40
2023-05-05T09:11:22.607Z,12.40
2023-05-05T09:13:49.936Z,12.40
2023-05-05T09:16:17.305Z,12.50
2023-05-05T09:18:45.577Z,12.70
2023-05-05T09:21:26.002Z,13.20
2023-05-05T09:24:11.167Z,13.40
2023-05-05T09:26:46.716Z,13.50
2023-05-05T09:29:21.494Z,13.80
2023-05-05T09:32:08.720Z,13.70
2023-05-05T09:34:37.540Z,13.50
2023-05-05T09:37:06.122Z,13.10
2023-05-05T09:39:33.543Z,13.00
2023-05-05T09:42:01.285Z,13.00
2023-05-05T09:44:37.218Z,12.90
2023-05-05T09:47:09.405Z,12.90
2023-05-05T09:49:42.214Z,13.20
2023-05-05T09:52:17.861Z,13.40
2023-05-05T09:54:45.275Z,14.00
2023-05-05T09:57:31.572Z,14.00
2023-05-05T10:00:01.254Z,14.30
2023-05-05T10:02:39.262Z,13.30
2023-05-05T10:05:18.051Z,12.60
2023-05-05T10:07:47.623Z,12.20
2023-05-05T10:10:17.334Z,12.30
2023-05-05T10:12:46.669Z,12.10
2023-05-05T10:15:15.968Z,12.40
2023-05-05T10:18:05.362Z,12.90
2023-05-05T10:20:38.746Z,12.90
2023-05-05T10:23:08.368Z,13.60
2023-05-05T10:25:49.846Z,14.10
2023-05-05T10:28:28.411Z,14.00
2023-05-05T10:30:58.846Z,13.90
2023-05-05T10:33:35.336Z,13.80
2023-05-05T10:36:06.597Z,14.40
2023-05-05T10:38:34.359Z,14.40
2023-05-05T10:41:02.266Z,14.30
2023-05-05T10:43:31.981Z,14.00
2023-05-05T10:46:00.443Z,13.70
2023-05-05T10:48:40.373Z,13.40
2023-05-05T10:51:41.427Z,13.80
2023-05-05T10:54:37.150Z,13.60
2023-05-05T10:57:10.010Z,13.70
2023-05-05T10:59:37.274Z,14.30
2023-05-05T11:02:30.487Z,13.90
2023-05-05T11:05:23.326Z,14.20
2023-05-05T11:07:51.949Z,15.20
2023-05-05T11:10:21.134Z,14.60
2023-05-05T11:12:59.241Z,14.40
2023-05-05T11:15:26.489Z,14.70
2023-05-05T11:18:05.896Z,15.40
2023-05-05T11:20:37.574Z,15.40
2023-05-05T11:23:05.188Z,15.90
2023-05-05T11:25:47.132Z,15.40
2023-05-05T11:28:16.482Z,14.20
2023-05-05T11:30:56.171Z,14.10
2023-05-05T11:33:36.940Z,14.80
2023-05-05T11:36:12.795Z,15.20
2023-05-05T11:39:20.686Z,15.50
2023-05-05T11:42:26.743Z,15.30
2023-05-05T11:44:54.988Z,15.50
2023-05-05T11:47:22.072Z,15.50
2023-05-05T11:49:50.033Z,15.60
2023-05-05T11:52:17.423Z,15.70
2023-05-05T11:54:50.439Z,15.80
2023-05-05T11:57:23.535Z,15.70
2023-05-05T11:59:59.032Z,15.30
2023-05-05T12:02:28.219Z,15.40
2023-05-05T12:04:56.951Z,15.30
2023-05-05T12:07:31.084Z,14.80
2023-05-05T12:09:58.765Z,15.10
2023-05-05T12:12:40.757Z,16.00
2023-05-05T12:15:09.361Z,16.30
2023-05-05T12:17:43.742Z,16.00
2023-05-05T12:20:12.144Z,15.80
2023-05-05T12:22:40.490Z,16.00
2023-05-05T12:25:09.443Z,16.10
2023-05-05T12:27:36.702Z,15.40
2023-05-05T12:30:16.006Z,14.80
2023-05-05T12:32:44.168Z,14.30
2023-05-05T12:35:12.841Z,14.00
2023-05-05T12:37:40.466Z,13.60
2023-05-05T12:40:09.199Z,13.90
2023-05-05T12:42:40.094Z,14.20
2023-05-05T12:45:17.420Z,14.10
2023-05-05T12:47:44.892Z,14.10
2023-05-05T12:50:12.420Z,13.30
2023-05-05T12:52:46.209Z,12.80
2023-05-05T12:55:13.652Z,12.60
2023-05-05T12:58:02.050Z,12.60
2023-05-05T13:00:29.234Z,12.70
2023-05-05T13:02:57.000Z,12.90
2023-05-05T13:05:36.600Z,13.10
2023-05-05T13:08:04.103Z,13.10
2023-05-05T13:10:31.495Z,12.90
2023-05-05T13:12:59.007Z,12.80
2023-05-05T13:15:27.349Z,12.70
2023-05-05T13:18:01.658Z,12.70
2023-05-05T13:20:29.347Z,12.80
2023-05-05T13:22:57.281Z,13.00
2023-05-05T13:25:24.597Z,13.20
2023-05-05T13:27:51.884Z,13.10
2023-05-05T13:30:20.661Z,12.90
2023-05-05T13:32:47.953Z,12.60
2023-05-05T13:35:16.543Z,12.60
2023-05-05T13:37:45.975Z,13.00
2023-05-05T13:40:14.081Z,13.70
2023-05-05T13:42:41.273Z,14.40
2023-05-05T13:45:09.281Z,14.50
2023-05-05T13:47:36.764Z,14.70
2023-05-05T13:50:04.720Z,14.50
2023-05-05T13:52:32.183Z,14.00
2023-05-05T13:55:00.988Z,13.70
2023-05-05T13:57:28.305Z,13.20
2023-05-05T13:59:55.676Z,12.90
2023-05-05T14:02:22.876Z,12.90
2023-05-05T14:04:50.072Z,12.70
2023-05-05T14:07:17.526Z,12.50
2023-05-05T14:09:44.656Z,12.40
2023-05-05T14:12:11.825Z,12.30
2023-05-05T14:14:39.282Z,12.20
2023-05-05T14:17:06.482Z,12.10
2023-05-05T14:19:33.712Z,12.10
2023-05-05T14:22:01.406Z,11.90
2023-05-05T14:24:28.583Z,11.80
2023-05-05T14:26:55.786Z,11.80
2023-05-05T14:29:23.012Z,11.90
2023-05-05T14:31:50.189Z,12.00
2023-05-05T14:34:17.548Z,12.10
2023-05-05T14:36:44.706Z,12.10
2023-05-05T14:39:11.962Z,12.20
2023-05-05T14:41:39.276Z,11.90
2023-05-05T14:44:06.613Z,11.70
2023-05-05T14:46:34.006Z,11.70
2023-05-05T14:49:01.222Z,11.60
2023-05-05T14:51:28.564Z,11.60
2023-05-05T14:53:56.033Z,11.70
2023-05-05T14:56:24.396Z,11.40
2023-05-05T14:58:51.596Z,11.30
2023-05-05T15:01:20.601Z,11.30
2023-05-05T15:03:47.946Z,11.50
2023-05-05T15:06:15.110Z,11.50
2023-05-05T15:08:42.424Z,11.40
2023-05-05T15:11:09.654Z,11.20
2023-05-05T15:13:40.186Z,11.10
2023-05-05T15:16:08.443Z,11.30
2023-05-05T15:18:35.985Z,11.20
2023-05-05T15:21:03.708Z,11.20
2023-05-05T15:23:31.018Z,11.10
2023-05-05T15:25:58.265Z,11.00
2023-05-05T15:28:25.446Z,11.00
2023-05-05T15:30:52.770Z,10.90
2023-05-05T15:33:20.113Z,10.90
2023-05-05T15:35:47.217Z,10.90
2023-05-05T15:38:14.473Z,11.00
2023-05-05T15:40:44.500Z,10.90
2023-05-05T15:43:12.431Z,10.90
2023-05-05T15:45:41.293Z,10.80
2023-05-05T15:48:08.789Z,10.60
2023-05-05T15:50:36.865Z,10.40
2023-05-05T15:53:04.019Z,10.30
2023-05-05T15:55:31.300Z,10.20
2023-05-05T15:57:58.445Z,10.20
2023-05-05T16:00:25.805Z,10.20
2023-05-05T16:02:53.020Z,10.20
2023-05-05T16:05:22.837Z,10.20
2023-05-05T16:07:50.388Z,10.20
2023-05-05T16:10:19.408Z,10.20
2023-05-05T16:12:46.744Z,10.10
2023-05-05T16:15:14.011Z,10.10
2023-05-05T16:17:41.173Z,10.10
2023-05-05T16:20:09.168Z,10.00
2023-05-05T16:22:36.921Z,9.90
2023-05-05T16:25:04.547Z,10.00
2023-05-05T16:27:31.774Z,9.90
2023-05-05T16:29:59.877Z,9.80
2023-05-05T16:32:27.404Z,9.90
2023-05-05T16:34:55.115Z,9.90
2023-05-05T16:37:22.374Z,9.90
2023-05-05T16:39:49.594Z,9.90
2023-05-05T16:42:16.790Z,9.80
2023-05-05T16:44:43.992Z,9.60
2023-05-05T16:47:11.162Z,9.60
2023-05-05T16:49:38.370Z,9.60
2023-05-05T16:52:05.554Z,9.50
2023-05-05T16:54:32.941Z,9.40
2023-05-05T16:57:00.553Z,9.30
2023-05-05T16:59:29.275Z,9.20
2023-05-05T17:01:58.243Z,9.20
2023-05-05T17:04:26.672Z,9.10
2023-05-05T17:06:55.306Z,9.10
2023-05-05T17:09:25.523Z,9.10
2023-05-05T17:11:52.784Z,9.00
2023-05-05T17:14:19.994Z,9.00
2023-05-05T17:16:47.166Z,8.90
2023-05-05T17:19:14.408Z,8.80
2023-05-05T17:21:43.182Z,8.80
2023-05-05T17:24:10.328Z,8.90
2023-05-05T17:26:38.791Z,8.80
2023-05-05T17:29:05.891Z,8.80
2023-05-05T17:31:33.045Z,8.80
2023-05-05T17:34:00.196Z,8.70
2023-05-05T17:36:27.372Z,8.70
2023-05-05T17:38:54.589Z,8.70
2023-05-05T17:41:21.973Z,8.80
2023-05-05T17:43:49.144Z,8.80
2023-05-05T17:46:16.316Z,8.80
2023-05-05T17:48:44.277Z,8.70
2023-05-05T17:51:11.475Z,8.50
2023-05-05T17:53:41.887Z,8.50
2023-05-05T17:56:12.300Z,8.50
2023-05-05T17:58:42.688Z,8.40
2023-05-05T18:01:26.760Z,8.40
2023-05-05T18:03:56.105Z,8.30
2023-05-05T18:06:26.304Z,8.30
2023-05-05T18:08:54.366Z,8.40
2023-05-05T18:11:27.568Z,8.40
2023-05-05T18:13:57.212Z,8.30
2023-05-05T18:16:27.803Z,8.30
2023-05-05T18:18:57.140Z,8.30
2023-05-05T18:21:26.922Z,8.30
2023-05-05T18:24:01.915Z,8.30
2023-05-05T18:26:39.190Z,8.30
2023-05-05T18:29:09.745Z,8.30
2023-05-05T18:31:40.200Z,8.20
2023-05-05T18:34:10.753Z,8.20
2023-05-05T18:36:41.141Z,8.20
2023-05-05T18:39:11.597Z,8.20
2023-05-05T18:41:42.269Z,8.20
2023-05-05T18:44:12.895Z,8.10
2023-05-05T18:46:43.674Z,8.10
2023-05-05T18:49:14.072Z,8.00
2023-05-05T18:51:44.491Z,8.10
2023-05-05T18:54:14.920Z,8.10
2023-05-05T18:56:45.397Z,8.00
2023-05-05T18:59:16.118Z,8.00
2023-05-05T19:01:46.593Z,8.00
2023-05-05T19:04:30.072Z,8.00
2023-05-05T19:07:01.588Z,8.00
2023-05-05T19:09:32.117Z,8.00
2023-05-05T19:12:02.968Z,8.00
2023-05-05T19:14:33.401Z,8.00
2023-05-05T19:17:03.959Z,8.00
2023-05-05T19:19:34.436Z,8.00
2023-05-05T19:22:04.876Z,7.90
2023-05-05T19:24:35.712Z,7.90
2023-05-05T19:27:08.169Z,7.90
2023-05-05T19:29:42.052Z,7.90
2023-05-05T19:32:13.021Z,7.90
2023-05-05T19:34:46.926Z,7.90
2023-05-05T19:37:18.555Z,7.90
2023-05-05T19:39:49.754Z,7.80
2023-05-05T19:42:20.410Z,7.80
2023-05-05T19:44:53.840Z,7.90
2023-05-05T19:47:24.290Z,7.90
2023-05-05T19:49:54.668Z,7.90
2023-05-05T19:52:25.171Z,7.90
2023-05-05T19:54:53.062Z,7.80
2023-05-05T19:57:23.485Z,7.80
2023-05-05T19:59:53.886Z,7.80
2023-05-05T20:02:26.539Z,7.80
2023-05-05T20:04:57.962Z,7.80
2023-05-05T20:07:31.178Z,7.80
2023-05-05T20:10:01.577Z,7.80
2023-05-05T20:12:31.986Z,7.80
2023-05-05T20:15:03.182Z,7.80
2023-05-05T20:17:32.139Z,8.20
2023-05-05T20:20:02.790Z,7.80
2023-05-05T20:22:33.272Z,7.80
2023-05-05T20:25:03.853Z,7.80
2023-05-05T20:27:32.989Z,7.80
2023-05-05T20:30:07.559Z,7.80
2023-05-05T20:32:38.381Z,7.80
2023-05-05T20:35:09.620Z,7.80
2023-05-05T20:37:40.118Z,7.80
2023-05-05T20:40:11.520Z,7.80
2023-05-05T20:42:43.369Z,7.80
2023-05-05T20:45:13.935Z,7.80
2023-05-05T20:47:43.743Z,7.90
2023-05-05T20:50:14.327Z,7.90
2023-05-05T20:52:44.781Z,7.90
2023-05-05T20:55:15.718Z,7.90
2023-05-05T20:57:46.314Z,7.80
2023-05-05T21:00:16.502Z,7.80
2023-05-05T21:02:44.186Z,7.80
2023-05-05T21:05:14.642Z,7.80
2023-05-05T21:07:44.836Z,7.80
2023-05-05T21:10:15.189Z,7.80
2023-05-05T21:12:45.601Z,7.80
2023-05-05T21:15:16.604Z,7.80
2023-05-05T21:17:46.696Z,7.80
2023-05-05T21:20:18.652Z,7.90
2023-05-05T21:22:47.461Z,7.80
2023-05-05T21:25:20.632Z,7.90
2023-05-05T21:27:49.517Z,7.90
2023-05-05T21:30:19.416Z,7.90
2023-05-05T21:32:47.370Z,7.90
2023-05-05T21:35:17.105Z,7.90
2023-05-05T21:37:49.257Z,7.90
2023-05-05T21:40:17.719Z,7.90
2023-05-05T21:42:47.706Z,8.00
2023-05-05T21:45:17.583Z,8.00
2023-05-05T21:47:46.886Z,8.00
2023-05-05T21:50:16.845Z,8.00
2023-05-05T21:52:46.978Z,8.00
2023-05-05T21:55:16.456Z,8.00
2023-05-05T21:57:46.104Z,8.00
2023-05-05T22:00:16.877Z,8.00
2023-05-05T22:02:47.189Z,8.00
2023-05-05T22:05:17.061Z,7.90
2023-05-05T22:07:46.099Z,7.90
2023-05-05T22:10:16.691Z,8.00
2023-05-05T22:12:45.804Z,8.00
2023-05-05T22:15:19.312Z,8.00
2023-05-05T22:17:49.754Z,8.00
2023-05-05T22:20:20.257Z,8.00
2023-05-05T22:22:51.014Z,7.90
2023-05-05T22:25:21.848Z,7.90
2023-05-05T22:27:52.274Z,7.90
2023-05-05T22:30:22.772Z,8.00
2023-05-05T22:32:53.202Z,8.00
2023-05-05T22:35:23.734Z,7.90
2023-05-05T22:37:54.123Z,7.90
2023-05-05T22:40:24.468Z,8.00
2023-05-05T22:42:54.973Z,8.00
2023-05-05T22:45:26.737Z,8.00
2023-05-05T22:47:57.889Z,7.90
2023-05-05T22:50:28.365Z,8.00
2023-05-05T22:52:58.788Z,7.90
2023-05-05T22:55:29.340Z,7.90
2023-05-05T22:57:59.978Z,7.90
2023-05-05T23:00:30.630Z,7.90
2023-05-05T23:03:01.195Z,7.90
2023-05-05T23:05:31.965Z,7.90
2023-05-05T23:08:02.606Z,7.90
2023-05-05T23:10:33.219Z,8.00
2023-05-05T23:13:03.728Z,7.90
2023-05-05T23:15:35.075Z,7.90
2023-05-05T23:18:05.654Z,7.90
2023-05-05T23:20:36.148Z,7.90
2023-05-05T23:23:06.514Z,7.80
2023-05-05T23:25:37.017Z,7.80
2023-05-05T23:28:07.675Z,7.80
2023-05-05T23:30:38.223Z,7.80
2023-05-05T23:33:08.867Z,7.80
2023-05-05T23:35:43.230Z,7.80
2023-05-05T23:38:13.660Z,8.50
2023-05-05T23:40:44.177Z,7.70
2023-05-05T23:43:14.666Z,7.70
2023-05-05T23:45:45.125Z,7.60
2023-05-05T23:48:15.553Z,7.60
2023-05-05T23:50:46.049Z,7.60
2023-05-05T23:53:16.659Z,7.50
2023-05-05T23:55:47.154Z,7.50
2023-05-05T23:58:17.686Z,7.40
